createdAt,value
2022-11-05T00:01:01.427Z,101252.39
2022-11-05T00:03:47.800Z,101263.31
2022-11-05T00:06:34.099Z,101266.98
2022-11-05T00:09:20.687Z,101262.79
2022-11-05T00:12:07.273Z,101264.98
2022-11-05T00:14:58.396Z,101269.79
2022-11-05T00:17:26.159Z,101272.77
2022-11-05T00:19:54.029Z,101276.00
2022-11-05T00:22:40.563Z,101291.73
2022-11-05T00:25:20.901Z,101285.22
2022-11-05T00:27:53.951Z,101298.10
2022-11-05T00:30:26.194Z,101296.08
2022-11-05T00:32:54.223Z,101288.72
2022-11-05T00:35:23.189Z,101294.90
2022-11-05T00:37:51.091Z,101301.66
2022-11-05T00:40:18.973Z,101292.28
2022-11-05T00:43:05.449Z,101303.50
2022-11-05T00:45:33.363Z,101307.84
2022-11-05T00:48:19.922Z,101306.48
2022-11-05T00:50:47.885Z,101307.13
2022-11-05T00:53:15.877Z,101302.29
2022-11-05T00:55:45.961Z,101309.97
2022-11-05T00:58:18.631Z,101305.46
2022-11-05T01:00:52.823Z,101311.51
2022-11-05T01:03:22.177Z,101319.32
2022-11-05T01:05:51.918Z,101322.49
2022-11-05T01:08:20.966Z,101315.50
2022-11-05T01:10:53.098Z,101319.65
2022-11-05T01:13:22.443Z,101323.31
2022-11-05T01:15:52.073Z,101325.14
2022-11-05T01:18:20.169Z,101325.14
2022-11-05T01:20:48.132Z,101332.73
2022-11-05T01:23:16.170Z,101334.73
2022-11-05T01:25:44.877Z,101339.27
2022-11-05T01:28:12.807Z,101344.44
2022-11-05T01:30:40.723Z,101349.30
2022-11-05T01:33:08.796Z,101350.48
2022-11-05T01:35:36.782Z,101350.48
2022-11-05T01:38:04.608Z,101345.94
2022-11-05T01:40:32.523Z,101351.30
2022-11-05T01:43:00.328Z,101351.82
2022-11-05T01:45:28.895Z,101370.92
2022-11-05T01:48:05.830Z,101363.73
2022-11-05T01:50:52.961Z,101361.24
2022-11-05T01:53:32.064Z,101368.07
2022-11-05T01:56:24.273Z,101358.88
2022-11-05T01:58:52.969Z,101368.07
2022-11-05T02:01:20.904Z,101365.91
2022-11-05T02:03:49.706Z,101364.38
2022-11-05T02:06:17.874Z,101366.02
2022-11-05T02:09:04.516Z,101372.20
2022-11-05T02:11:32.427Z,101374.74
2022-11-05T02:14:00.550Z,101378.44
2022-11-05T02:16:31.187Z,101368.40
2022-11-05T02:19:23.301Z,101369.55
2022-11-05T02:21:53.728Z,101367.23
2022-11-05T02:24:36.435Z,101359.02
2022-11-05T02:27:11.454Z,101366.70
2022-11-05T02:30:04.650Z,101360.06
2022-11-05T02:32:44.281Z,101367.09
2022-11-05T02:35:24.027Z,101371.12
2022-11-05T02:37:57.524Z,101364.74
2022-11-05T02:40:43.857Z,101373.30
2022-11-05T02:43:34.975Z,101375.37
2022-11-05T02:46:12.948Z,101376.54
2022-11-05T02:48:46.759Z,101376.02
2022-11-05T02:51:54.275Z,101377.20
2022-11-05T02:54:24.684Z,101370.13
2022-11-05T02:56:53.274Z,101372.81
2022-11-05T02:59:21.161Z,101377.13
2022-11-05T03:01:49.104Z,101388.54
2022-11-05T03:04:18.393Z,101390.21
2022-11-05T03:06:55.277Z,101389.88
2022-11-05T03:09:27.780Z,101390.08
2022-11-05T03:12:15.740Z,101400.84
2022-11-05T03:15:17.695Z,101399.98
2022-11-05T03:17:45.943Z,101398.80
2022-11-05T03:20:27.255Z,101404.50
2022-11-05T03:23:13.885Z,101394.30
2022-11-05T03:25:50.636Z,101399.46
2022-11-05T03:28:18.727Z,101405.67
2022-11-05T03:30:46.543Z,101403.68
2022-11-05T03:33:18.314Z,101406.00
2022-11-05T03:35:50.970Z,101408.20
2022-11-05T03:38:23.058Z,101407.34
2022-11-05T03:40:53.982Z,101415.91
2022-11-05T03:43:22.233Z,101423.52
2022-11-05T03:45:59.758Z,101415.32
2022-11-05T03:48:28.810Z,101414.47
2022-11-05T03:51:05.986Z,101420.68
2022-11-05T03:53:39.343Z,101428.40
2022-11-05T03:56:28.608Z,101417.18
2022-11-05T03:58:59.139Z,101426.37
2022-11-05T04:01:27.317Z,101431.57
2022-11-05T04:03:55.203Z,101431.24
2022-11-05T04:06:41.738Z,101430.10
2022-11-05T04:09:29.101Z,101435.46
2022-11-05T04:12:15.454Z,101436.28
2022-11-05T04:14:43.314Z,101444.65
2022-11-05T04:17:13.906Z,101452.37
2022-11-05T04:20:01.793Z,101453.54
2022-11-05T04:22:50.133Z,101449.52
2022-11-05T04:25:18.490Z,101457.95
2022-11-05T04:27:46.681Z,101460.64
2022-11-05T04:30:20.910Z,101458.12
2022-11-05T04:33:15.814Z,101463.65
2022-11-05T04:36:01.496Z,101468.35
2022-11-05T04:38:29.288Z,101479.54
2022-11-05T04:41:00.428Z,101482.41
2022-11-05T04:43:28.246Z,101486.17
2022-11-05T04:45:56.112Z,101486.80
2022-11-05T04:48:23.862Z,101487.97
2022-11-05T04:50:51.639Z,101492.52
2022-11-05T04:53:19.442Z,101489.31
2022-11-05T04:55:47.246Z,101489.12
2022-11-05T04:58:15.114Z,101495.16
2022-11-05T05:00:42.982Z,101498.01
2022-11-05T05:03:11.112Z,101493.14
2022-11-05T05:05:39.185Z,101494.97
2022-11-05T05:08:07.051Z,101497.81
2022-11-05T05:10:34.834Z,101495.46
2022-11-05T05:13:02.744Z,101485.78
2022-11-05T05:15:30.613Z,101501.51
2022-11-05T05:17:58.438Z,101490.23
2022-11-05T05:20:58.482Z,101495.06
2022-11-05T05:23:26.354Z,101494.45
2022-11-05T05:25:54.176Z,101497.23
2022-11-05T05:28:22.009Z,101507.06
2022-11-05T05:30:52.568Z,101504.35
2022-11-05T05:33:22.585Z,101499.64
2022-11-05T05:35:50.539Z,101506.12
2022-11-05T05:38:18.442Z,101507.72
2022-11-05T05:40:46.192Z,101511.55
2022-11-05T05:43:14.146Z,101515.05
2022-11-05T05:45:41.954Z,101514.20
2022-11-05T05:48:09.822Z,101521.68
2022-11-05T05:50:37.973Z,101513.80
2022-11-05T05:53:05.819Z,101523.84
2022-11-05T05:55:33.715Z,101522.14
2022-11-05T05:58:01.568Z,101527.01
2022-11-05T06:00:29.409Z,101533.55
2022-11-05T06:02:57.781Z,101539.24
2022-11-05T06:05:25.579Z,101538.09
2022-11-05T06:07:57.509Z,101540.05
2022-11-05T06:10:25.899Z,101547.48
2022-11-05T06:12:53.838Z,101547.77
2022-11-05T06:15:21.704Z,101549.80
2022-11-05T06:17:49.463Z,101555.20
2022-11-05T06:20:17.523Z,101553.82
2022-11-05T06:22:46.183Z,101558.66
2022-11-05T06:25:13.954Z,101558.66
2022-11-05T06:27:41.772Z,101560.98
2022-11-05T06:30:10.426Z,101564.68
2022-11-05T06:32:38.186Z,101571.09
2022-11-05T06:35:06.464Z,101569.81
2022-11-05T06:37:35.043Z,101573.30
2022-11-05T06:40:03.074Z,101581.74
2022-11-05T06:42:30.934Z,101577.46
2022-11-05T06:44:58.810Z,101587.56
2022-11-05T06:47:26.660Z,101588.35
2022-11-05T06:49:54.588Z,101585.93
2022-11-05T06:52:22.579Z,101597.66
2022-11-05T06:54:50.563Z,101597.66
2022-11-05T06:57:18.375Z,101603.81
2022-11-05T06:59:46.307Z,101609.80
2022-11-05T07:02:14.927Z,101614.67
2022-11-05T07:04:42.920Z,101615.32
2022-11-05T07:07:10.993Z,101618.69
2022-11-05T07:09:44.158Z,101622.19
2022-11-05T07:12:12.129Z,101626.70
2022-11-05T07:14:39.929Z,101628.08
2022-11-05T07:17:07.762Z,101627.45
2022-11-05T07:19:36.099Z,101629.45
2022-11-05T07:22:04.037Z,101637.98
2022-11-05T07:24:31.879Z,101641.05
2022-11-05T07:26:59.778Z,101644.52
2022-11-05T07:29:32.362Z,101644.00
2022-11-05T07:32:00.184Z,101649.06
2022-11-05T07:34:32.703Z,101660.90
2022-11-05T07:37:00.550Z,101659.73
2022-11-05T07:39:28.380Z,101667.93
2022-11-05T07:41:56.582Z,101665.80
2022-11-05T07:44:24.546Z,101673.23
2022-11-05T07:46:52.424Z,101673.52
2022-11-05T07:49:20.203Z,101676.07
2022-11-05T07:51:48.092Z,101675.74
2022-11-05T07:54:15.948Z,101677.22
2022-11-05T07:56:43.877Z,101673.81
2022-11-05T07:59:11.791Z,101673.62
2022-11-05T08:01:39.664Z,101675.29
2022-11-05T08:04:07.765Z,101677.64
2022-11-05T08:06:35.798Z,101680.91
2022-11-05T08:09:03.826Z,101679.31
2022-11-05T08:11:31.663Z,101695.27
2022-11-05T08:13:59.514Z,101696.12
2022-11-05T08:16:27.428Z,101696.05
2022-11-05T08:18:55.326Z,101697.39
2022-11-05T08:21:28.499Z,101693.83
2022-11-05T08:23:56.475Z,101695.40
2022-11-05T08:26:24.249Z,101701.74
2022-11-05T08:28:52.073Z,101713.97
2022-11-05T08:31:19.903Z,101698.89
2022-11-05T08:33:47.840Z,101708.08
2022-11-05T08:36:15.603Z,101712.27
2022-11-05T08:38:43.337Z,101704.06
2022-11-05T08:41:11.349Z,101712.27
2022-11-05T08:43:39.191Z,101720.28
2022-11-05T08:46:07.253Z,101712.27
2022-11-05T08:48:35.156Z,101716.19
2022-11-05T08:51:03.117Z,101712.70
2022-11-05T08:53:31.047Z,101722.63
2022-11-05T08:55:59.975Z,101712.27
2022-11-05T08:58:27.753Z,101713.64
2022-11-05T09:00:59.022Z,101712.07
2022-11-05T09:03:30.208Z,101721.03
2022-11-05T09:05:58.033Z,101723.65
2022-11-05T09:08:25.769Z,101732.54
2022-11-05T09:10:53.643Z,101733.36
2022-11-05T09:13:21.859Z,101735.91
2022-11-05T09:15:50.535Z,101730.80
2022-11-05T09:18:19.092Z,101728.29
2022-11-05T09:20:47.361Z,101731.16
2022-11-05T09:23:16.418Z,101732.87
2022-11-05T09:25:45.001Z,101737.18
2022-11-05T09:28:21.332Z,101744.90
2022-11-05T09:30:51.149Z,101751.50
2022-11-05T09:33:20.777Z,101755.43
2022-11-05T09:35:48.775Z,101756.90
2022-11-05T09:38:16.630Z,101753.53
2022-11-05T09:40:57.408Z,101759.77
2022-11-05T09:43:31.702Z,101757.12
2022-11-05T09:46:00.836Z,101755.95
2022-11-05T09:48:30.648Z,101767.69
2022-11-05T09:50:59.482Z,101766.31
2022-11-05T09:53:27.374Z,101762.62
2022-11-05T09:56:00.498Z,101767.13
2022-11-05T09:58:38.759Z,101770.11
2022-11-05T10:01:09.099Z,101770.11
2022-11-05T10:03:37.585Z,101775.17
2022-11-05T10:06:09.559Z,101784.36
2022-11-05T10:08:41.600Z,101785.51
2022-11-05T10:11:20.949Z,101791.20
2022-11-05T10:13:53.831Z,101797.44
2022-11-05T10:16:27.752Z,101797.64
2022-11-05T10:19:02.963Z,101802.51
2022-11-05T10:21:51.838Z,101803.03
2022-11-05T10:24:20.456Z,101796.36
2022-11-05T10:26:51.125Z,101803.98
2022-11-05T10:29:37.441Z,101807.25
2022-11-05T10:32:07.131Z,101808.95
2022-11-05T10:34:36.106Z,101810.95
2022-11-05T10:37:04.390Z,101815.16
2022-11-05T10:39:32.565Z,101816.77
2022-11-05T10:42:19.432Z,101812.32
2022-11-05T10:58:30.925Z,101815.91
2022-11-05T11:00:58.746Z,101826.15
2022-11-05T11:03:49.427Z,101814.21
2022-11-05T11:06:27.863Z,101825.85
2022-11-05T11:08:57.704Z,101822.23
2022-11-05T11:11:30.130Z,101818.10
2022-11-05T11:13:57.878Z,101821.47
2022-11-05T11:16:27.587Z,101812.38
2022-11-05T11:19:02.057Z,101810.03
2022-11-05T11:21:30.867Z,101808.43
2022-11-05T11:24:07.989Z,101807.87
2022-11-05T11:26:44.665Z,101814.70
2022-11-05T11:29:26.635Z,101818.14
2022-11-05T11:31:56.224Z,101820.46
2022-11-05T11:34:36.386Z,101812.71
2022-11-05T11:37:20.970Z,101811.63
2022-11-05T11:39:54.096Z,101819.09
2022-11-05T11:42:36.862Z,101807.55
2022-11-05T11:45:23.369Z,101811.80
2022-11-05T11:47:53.982Z,101812.02
2022-11-05T11:50:40.187Z,101806.73
2022-11-05T11:53:23.318Z,101811.53
2022-11-05T11:56:13.505Z,101811.77
2022-11-05T11:58:54.806Z,101814.93
2022-11-05T12:01:33.604Z,101820.95
2022-11-05T12:04:14.344Z,101821.38
2022-11-05T12:07:06.974Z,101820.66
2022-11-05T12:09:39.985Z,101819.80
2022-11-05T12:12:15.573Z,101817.91
2022-11-05T12:14:55.699Z,101812.84
2022-11-05T12:17:46.931Z,101817.65
2022-11-05T12:20:31.358Z,101813.63
2022-11-05T12:23:15.400Z,101810.95
2022-11-05T12:25:48.622Z,101811.11
2022-11-05T12:28:25.549Z,101806.40
2022-11-05T12:31:06.803Z,101813.98
2022-11-05T12:33:59.934Z,101813.46
2022-11-05T12:36:47.372Z,101820.13
2022-11-05T12:39:52.623Z,101813.56
2022-11-05T12:42:35.854Z,101823.44
2022-11-05T12:45:09.213Z,101816.05
2022-11-05T12:47:46.086Z,101816.70
2022-11-05T12:50:38.155Z,101814.21
2022-11-05T12:53:34.135Z,101819.55
2022-11-05T12:56:05.989Z,101818.70
2022-11-05T12:58:35.217Z,101821.24
2022-11-05T13:01:06.322Z,101825.43
2022-11-05T13:03:50.506Z,101822.26
2022-11-05T13:06:20.928Z,101814.34
2022-11-05T13:09:02.714Z,101820.36
2022-11-05T13:11:36.597Z,101821.02
2022-11-05T13:14:15.299Z,101821.24
2022-11-05T13:16:47.463Z,101819.22
2022-11-05T13:19:27.839Z,101822.06
2022-11-05T13:22:10.695Z,101824.09
2022-11-05T13:25:09.285Z,101826.28
2022-11-05T13:27:51.710Z,101832.85
2022-11-05T13:30:27.155Z,101824.77
2022-11-05T13:33:00.162Z,101819.94
2022-11-05T13:35:35.132Z,101823.63
2022-11-05T13:38:26.618Z,101819.05
2022-11-05T13:41:39.780Z,101821.60
2022-11-05T13:44:29.145Z,101815.23
2022-11-05T13:47:29.526Z,101813.23
2022-11-05T13:50:29.439Z,101812.61
2022-11-05T13:52:59.949Z,101804.38
2022-11-05T13:55:33.777Z,101810.78
2022-11-05T13:58:44.648Z,101816.30
2022-11-05T14:01:42.146Z,101820.00
2022-11-05T14:04:22.527Z,101824.71
2022-11-05T14:06:50.492Z,101825.04
2022-11-05T14:09:21.304Z,101828.24
2022-11-05T14:11:51.511Z,101837.66
2022-11-05T14:14:24.073Z,101834.62
2022-11-05T14:16:52.746Z,101836.28
2022-11-05T14:19:21.242Z,101834.95
2022-11-05T14:21:59.153Z,101839.81
2022-11-05T14:24:29.101Z,101843.31
2022-11-05T14:27:10.780Z,101846.84
2022-11-05T14:29:43.357Z,101841.77
2022-11-05T14:32:24.926Z,101837.40
2022-11-05T14:35:17.392Z,101844.30
2022-11-05T14:37:57.550Z,101850.67
2022-11-05T14:40:40.077Z,101855.84
2022-11-05T14:43:23.858Z,101854.01
2022-11-05T14:46:01.790Z,101856.62
2022-11-05T14:48:29.606Z,101852.63
2022-11-05T14:50:57.525Z,101855.80
2022-11-05T14:53:38.600Z,101863.00
2022-11-05T14:56:12.937Z,101865.88
2022-11-05T14:58:44.639Z,101867.37
2022-11-05T15:01:15.391Z,101872.87
2022-11-05T15:03:46.679Z,101866.49
2022-11-05T15:06:37.010Z,101871.98
2022-11-05T15:09:04.796Z,101870.38
2022-11-05T15:12:03.765Z,101872.31
2022-11-05T15:14:39.842Z,101875.88
2022-11-05T15:17:33.242Z,101878.07
2022-11-05T15:20:22.803Z,101882.74
2022-11-05T15:22:53.043Z,101895.56
2022-11-05T15:25:24.698Z,101892.65
2022-11-05T15:27:57.830Z,101885.23
2022-11-05T15:30:25.721Z,101894.98
2022-11-05T15:32:53.887Z,101896.87
2022-11-05T15:35:28.022Z,101905.44
2022-11-05T15:38:01.649Z,101897.66
2022-11-05T15:40:31.595Z,101887.16
2022-11-05T15:43:10.736Z,101888.34
2022-11-05T15:45:38.993Z,101895.86
2022-11-05T15:48:16.826Z,101895.95
2022-11-05T15:50:44.695Z,101895.43
2022-11-05T15:53:44.092Z,101900.17
2022-11-05T15:56:11.579Z,101902.30
2022-11-05T15:58:43.946Z,101903.54
2022-11-05T16:01:30.726Z,101904.59
2022-11-05T16:04:12.098Z,101908.54
2022-11-05T16:06:40.849Z,101903.77
2022-11-05T16:09:08.725Z,101904.29
2022-11-05T16:11:36.515Z,101910.30
2022-11-05T16:14:15.316Z,101900.70
2022-11-05T16:16:45.359Z,101899.52
2022-11-05T16:19:40.161Z,101906.71
2022-11-05T16:22:08.583Z,101910.11
2022-11-05T16:24:36.335Z,101927.21
2022-11-05T16:27:06.890Z,101922.14
2022-11-05T16:29:40.163Z,101923.26
2022-11-05T16:32:16.073Z,101928.45
2022-11-05T16:34:51.421Z,101918.05
2022-11-05T16:37:20.705Z,101930.65
2022-11-05T16:39:48.712Z,101936.66
2022-11-05T16:42:25.626Z,101932.12
2022-11-05T16:44:56.149Z,101938.98
2022-11-05T16:47:24.020Z,101936.20
2022-11-05T16:49:51.960Z,101926.88
2022-11-05T16:52:19.768Z,101932.61
2022-11-05T16:54:47.601Z,101930.61
2022-11-05T16:57:28.529Z,101934.08
2022-11-05T16:59:56.652Z,101932.77
2022-11-05T17:02:24.542Z,101941.80
2022-11-05T17:04:52.458Z,101943.53
2022-11-05T17:07:20.237Z,101952.06
2022-11-05T17:09:48.042Z,101960.37
2022-11-05T17:12:16.154Z,101963.77
2022-11-05T17:14:44.352Z,101960.98
2022-11-05T17:17:12.418Z,101962.06
2022-11-05T17:19:43.428Z,101969.00
2022-11-05T17:22:16.417Z,101967.07
2022-11-05T17:24:44.284Z,101962.36
2022-11-05T17:27:12.255Z,101962.46
2022-11-05T17:29:40.117Z,101963.60
2022-11-05T17:32:08.200Z,101966.45
2022-11-05T17:34:36.166Z,101966.38
2022-11-05T17:37:03.966Z,101964.35
2022-11-05T17:39:32.188Z,101964.35
2022-11-05T17:42:00.083Z,101964.09
2022-11-05T17:44:27.937Z,101972.63
2022-11-05T17:46:55.820Z,101962.36
2022-11-05T17:49:23.686Z,101953.83
2022-11-05T17:51:51.469Z,101958.99
2022-11-05T17:54:19.423Z,101953.30
2022-11-05T17:56:47.372Z,101965.59
2022-11-05T17:59:15.412Z,101973.61
2022-11-05T18:01:45.003Z,101977.95
2022-11-05T18:04:13.454Z,101977.07
2022-11-05T18:06:45.323Z,101980.87
2022-11-05T18:09:13.466Z,101984.01
2022-11-05T18:11:41.701Z,101984.92
2022-11-05T18:14:09.786Z,101987.57
2022-11-05T18:16:38.021Z,101986.72
2022-11-05T18:19:06.151Z,101988.12
2022-11-05T18:21:36.299Z,101998.13
2022-11-05T18:24:11.349Z,101998.75
2022-11-05T18:26:39.217Z,101992.84
2022-11-05T18:29:07.220Z,102001.43
2022-11-05T18:31:35.083Z,101994.05
2022-11-05T18:34:02.928Z,101999.50
2022-11-05T18:36:31.784Z,101996.10
2022-11-05T18:39:00.430Z,101989.34
2022-11-05T18:41:28.296Z,101991.33
2022-11-05T18:44:00.733Z,102000.45
2022-11-05T18:46:56.688Z,101996.85
2022-11-05T18:49:17.574Z,101996.30
2022-11-05T18:51:45.464Z,101996.37
2022-11-05T18:54:13.268Z,102002.05
2022-11-05T18:56:46.396Z,102008.13
2022-11-05T18:59:35.767Z,102005.88
2022-11-05T19:02:02.827Z,102009.37
2022-11-05T19:04:31.801Z,102001.17
2022-11-05T19:07:04.515Z,101994.37
2022-11-05T19:09:32.967Z,101993.29
2022-11-05T19:12:00.815Z,101997.28
2022-11-05T19:14:28.849Z,101998.20
2022-11-05T19:16:57.408Z,102002.48
2022-11-05T19:19:25.232Z,101994.27
2022-11-05T19:22:05.635Z,101988.02
2022-11-05T19:24:38.616Z,101997.21
2022-11-05T19:27:09.459Z,102006.89
2022-11-05T19:29:38.553Z,102001.27
2022-11-05T19:32:06.852Z,102003.85
2022-11-05T19:34:35.311Z,102006.70
2022-11-05T19:37:11.329Z,102008.17
2022-11-05T19:39:42.670Z,102016.99
2022-11-05T19:42:15.407Z,102006.24
2022-11-05T19:44:44.371Z,102010.55
2022-11-05T19:47:12.774Z,102006.30
2022-11-05T19:49:48.536Z,102012.29
2022-11-05T19:52:21.344Z,102003.49
2022-11-05T19:55:12.580Z,102001.56
2022-11-05T19:57:46.344Z,102001.56
2022-11-05T20:00:17.200Z,102000.45
2022-11-05T20:02:48.860Z,101999.60
2022-11-05T20:05:19.449Z,101989.40
2022-11-05T20:07:52.494Z,102001.11
2022-11-05T20:10:23.945Z,101998.82
2022-11-05T20:12:56.491Z,102008.23
2022-11-05T20:15:25.586Z,101996.89
2022-11-05T20:17:58.149Z,101996.92
2022-11-05T20:20:26.220Z,101996.40
2022-11-05T20:22:58.734Z,101991.00
2022-11-05T20:25:26.850Z,102003.20
2022-11-05T20:27:59.732Z,102015.16
2022-11-05T20:30:41.853Z,102028.51
2022-11-05T20:33:15.624Z,102017.48
2022-11-05T20:35:50.772Z,102006.99
2022-11-05T20:38:18.825Z,102010.42
2022-11-05T20:40:46.976Z,102010.13
2022-11-05T20:43:14.862Z,102011.57
2022-11-05T20:45:47.397Z,102008.17
2022-11-05T20:48:15.473Z,102013.01
2022-11-05T20:50:48.850Z,102014.45
2022-11-05T20:53:21.743Z,102016.99
2022-11-05T20:55:52.541Z,102022.69
2022-11-05T20:58:20.506Z,102034.06
2022-11-05T21:00:50.693Z,102029.55
2022-11-05T21:03:19.249Z,102044.88
2022-11-05T21:05:48.635Z,102040.93
2022-11-05T21:08:16.564Z,102047.77
2022-11-05T21:10:51.264Z,102049.43
2022-11-05T21:13:19.627Z,102045.77
2022-11-05T21:15:51.652Z,102054.83
2022-11-05T21:18:24.170Z,102052.27
2022-11-05T21:20:52.463Z,102049.49
2022-11-05T21:23:20.736Z,102038.15
2022-11-05T21:25:53.716Z,102030.53
2022-11-05T21:28:21.830Z,102033.64
2022-11-05T21:30:50.326Z,102022.29
2022-11-05T21:33:19.241Z,102030.23
2022-11-05T21:35:48.725Z,102022.03
2022-11-05T21:38:19.431Z,102035.41
2022-11-05T21:40:47.502Z,102018.37
2022-11-05T21:43:18.581Z,102030.04
2022-11-05T21:45:51.324Z,102033.15
2022-11-05T21:48:24.036Z,102030.34
2022-11-05T21:51:13.923Z,102024.38
2022-11-05T21:54:00.339Z,102017.29
2022-11-05T21:56:46.834Z,102013.37
2022-11-05T21:59:44.699Z,102016.21
2022-11-05T22:02:14.001Z,102014.25
2022-11-05T22:04:50.378Z,102016.24
2022-11-05T22:07:22.410Z,102017.95
2022-11-05T22:09:50.363Z,102010.30
2022-11-05T22:12:18.320Z,102011.99
2022-11-05T22:14:51.423Z,102013.70
2022-11-05T22:17:22.284Z,102008.85
2022-11-05T22:19:53.026Z,102015.66
2022-11-05T22:22:21.008Z,102008.30
2022-11-05T22:24:53.842Z,102011.14
2022-11-05T22:27:24.814Z,102019.09
2022-11-05T22:29:52.953Z,102013.98
2022-11-05T22:32:20.933Z,102018.24
2022-11-05T22:34:53.852Z,102008.63
2022-11-05T22:37:31.770Z,102002.67
2022-11-05T22:39:59.789Z,101998.16
2022-11-05T22:42:35.399Z,101995.29
2022-11-05T22:45:03.588Z,102000.71
2022-11-05T22:47:31.540Z,102001.86
2022-11-05T22:49:59.847Z,102001.01
2022-11-05T22:52:27.922Z,101996.76
2022-11-05T22:54:56.088Z,102002.71
2022-11-05T22:57:24.103Z,102004.41
2022-11-05T22:59:52.116Z,102006.11
2022-11-05T23:02:25.182Z,102001.59
2022-11-05T23:04:55.995Z,102005.84
2022-11-05T23:07:50.272Z,102002.48
2022-11-05T23:10:36.568Z,102005.59
2022-11-05T23:13:09.566Z,101999.63
2022-11-05T23:15:56.274Z,101990.88
2022-11-05T23:18:47.843Z,101988.02
2022-11-05T23:21:37.564Z,101992.87
2022-11-05T23:24:06.066Z,101988.02
2022-11-05T23:26:52.979Z,101978.38
2022-11-05T23:29:26.451Z,101983.77
2022-11-05T23:32:12.769Z,101984.92
2022-11-05T23:34:42.982Z,101978.45
2022-11-05T23:37:49.301Z,101992.28
2022-11-05T23:40:25.592Z,101989.47
2022-11-05T23:43:20.931Z,101981.52
2022-11-05T23:46:08.709Z,101986.03
2022-11-05T23:48:41.465Z,101989.47
2022-11-05T23:51:11.032Z,101980.08
2022-11-05T23:53:44.848Z,101965.34
2022-11-05T23:56:15.035Z,101974.66
2022-11-05T23:58:43.328Z,101963.60
